createdAt,value
2023-03-20T00:00:25.732Z,2.30
2023-03-20T00:02:55.658Z,2.05
2023-03-20T00:05:28.391Z,2.03
2023-03-20T00:07:58.797Z,2.00
2023-03-20T00:10:37.197Z,2.05
2023-03-20T00:13:07.911Z,1.90
2023-03-20T00:15:40.115Z,1.85
2023-03-20T00:18:18.325Z,1.63
2023-03-20T00:20:48.866Z,1.60
2023-03-20T00:23:19.594Z,1.58
2023-03-20T00:25:51.951Z,1.50
2023-03-20T00:28:34.094Z,1.70
2023-03-20T00:31:04.060Z,1.60
2023-03-20T00:33:33.782Z,1.77
2023-03-20T00:36:03.670Z,1.45
2023-03-20T00:38:33.483Z,1.48
2023-03-20T00:41:06.578Z,1.50
2023-03-20T00:43:36.325Z,1.20
2023-03-20T00:46:06.072Z,1.08
2023-03-20T00:48:36.097Z,1.48
2023-03-20T00:51:06.017Z,1.17
2023-03-20T00:53:35.953Z,1.20
2023-03-20T00:56:09.963Z,1.20
2023-03-20T00:58:39.797Z,1.40
2023-03-20T01:01:09.730Z,1.30
2023-03-20T01:03:40.776Z,1.55
2023-03-20T01:06:15.088Z,1.50
2023-03-20T01:08:45.029Z,1.50
2023-03-20T01:11:19.483Z,1.20
2023-03-20T01:16:24.356Z,1.55
2023-03-20T01:18:54.915Z,1.75
2023-03-20T01:21:24.748Z,1.65
2023-03-20T01:23:54.547Z,1.60
2023-03-20T01:26:39.274Z,1.58
2023-03-20T01:31:42.668Z,2.00
2023-03-20T01:34:13.152Z,2.38
2023-03-20T01:36:43.168Z,2.70
2023-03-20T01:39:13.329Z,2.28
2023-03-20T01:41:47.168Z,2.00
2023-03-20T01:44:22.582Z,2.28
2023-03-20T01:46:55.433Z,2.70
2023-03-20T01:49:55.356Z,3.03
2023-03-20T01:52:25.254Z,3.25
2023-03-20T01:54:55.058Z,3.95
2023-03-20T01:57:28.879Z,3.72
2023-03-20T02:00:03.197Z,3.65
2023-03-20T02:02:34.694Z,3.75
2023-03-20T02:05:09.995Z,4.25
2023-03-20T02:07:41.860Z,3.80
2023-03-20T02:10:14.563Z,4.00
2023-03-20T02:12:47.506Z,3.97
2023-03-20T02:15:19.214Z,4.20
2023-03-20T02:17:49.401Z,3.70
2023-03-20T02:20:30.763Z,4.07
2023-03-20T02:23:29.656Z,4.13
2023-03-20T02:26:29.391Z,4.28
2023-03-20T02:29:45.529Z,4.00
2023-03-20T02:32:57.628Z,3.67
2023-03-20T02:36:03.020Z,3.83
2023-03-20T02:39:05.037Z,3.20
2023-03-20T02:41:41.553Z,3.20
2023-03-20T02:44:16.508Z,3.10
2023-03-20T02:46:57.458Z,3.00
2023-03-20T02:49:40.723Z,2.90
2023-03-20T02:52:18.711Z,2.70
2023-03-20T02:54:59.907Z,2.75
2023-03-20T02:57:41.283Z,2.97
2023-03-20T03:00:16.806Z,3.00
2023-03-20T03:02:52.114Z,2.88
2023-03-20T03:05:26.655Z,2.60
2023-03-20T03:10:34.707Z,2.90
2023-03-20T03:13:07.845Z,2.40
2023-03-20T03:15:41.537Z,2.50
2023-03-20T03:18:16.538Z,3.28
2023-03-20T03:20:47.940Z,2.47
2023-03-20T03:23:26.517Z,2.20
2023-03-20T03:26:01.649Z,2.60
2023-03-20T03:28:38.866Z,2.10
2023-03-20T03:31:11.028Z,2.15
2023-03-20T03:33:44.070Z,2.38
2023-03-20T03:36:20.404Z,1.98
2023-03-20T03:38:57.084Z,1.83
2023-03-20T03:41:35.257Z,1.90
2023-03-20T03:44:14.640Z,1.88
2023-03-20T03:46:49.199Z,1.70
2023-03-20T03:51:56.076Z,1.40
2023-03-20T03:54:29.443Z,1.60
2023-03-20T03:57:03.853Z,1.40
2023-03-20T04:02:08.593Z,1.50
2023-03-20T04:04:45.051Z,1.20
2023-03-20T04:07:16.623Z,1.20
2023-03-20T04:09:46.370Z,1.38
2023-03-20T04:12:37.436Z,1.50
2023-03-20T04:15:08.738Z,1.33
2023-03-20T04:17:38.596Z,1.30
2023-03-20T04:20:10.570Z,1.20
2023-03-20T04:22:40.327Z,1.40
2023-03-20T04:25:13.325Z,1.40
2023-03-20T04:27:45.634Z,1.50
2023-03-20T04:30:16.267Z,1.48
2023-03-20T04:32:46.149Z,1.50
2023-03-20T04:35:16.364Z,1.65
2023-03-20T04:37:46.168Z,1.70
2023-03-20T04:40:16.595Z,1.90
2023-03-20T04:42:48.954Z,1.80
2023-03-20T04:45:18.916Z,1.50
2023-03-20T04:47:48.683Z,1.67
2023-03-20T04:50:19.016Z,1.48
2023-03-20T04:52:49.013Z,1.65
2023-03-20T04:55:18.936Z,1.67
2023-03-20T04:57:51.425Z,1.95
2023-03-20T05:00:21.961Z,1.35
2023-03-20T05:02:51.778Z,1.52
2023-03-20T05:05:22.428Z,1.85
2023-03-20T05:07:52.416Z,1.33
2023-03-20T05:10:22.293Z,1.33
2023-03-20T05:12:54.661Z,1.45
2023-03-20T05:15:24.429Z,1.08
2023-03-20T05:17:54.942Z,1.42
2023-03-20T05:20:24.830Z,1.20
2023-03-20T05:22:54.581Z,1.30
2023-03-20T05:25:24.379Z,1.20
2023-03-20T05:27:56.890Z,1.52
2023-03-20T05:30:26.818Z,1.27
2023-03-20T05:32:56.861Z,1.05
2023-03-20T05:35:26.775Z,1.10
2023-03-20T05:37:56.539Z,1.30
2023-03-20T05:40:26.826Z,1.50
2023-03-20T05:42:59.316Z,1.40
2023-03-20T05:45:29.114Z,1.30
2023-03-20T05:47:58.945Z,1.55
2023-03-20T05:50:28.846Z,1.08
2023-03-20T05:52:58.639Z,1.27
2023-03-20T05:55:28.395Z,1.60
2023-03-20T05:58:00.723Z,1.50
2023-03-20T06:00:30.676Z,1.42
2023-03-20T06:03:00.542Z,1.20
2023-03-20T06:05:30.378Z,1.65
2023-03-20T06:08:00.128Z,1.58
2023-03-20T06:10:30.154Z,1.63
2023-03-20T06:13:03.745Z,1.60
2023-03-20T06:15:33.738Z,1.65
2023-03-20T06:18:03.733Z,1.70
2023-03-20T06:20:34.273Z,1.63
2023-03-20T06:23:04.135Z,1.50
2023-03-20T06:25:34.089Z,1.35
2023-03-20T06:28:07.177Z,1.48
2023-03-20T06:30:37.460Z,1.10
2023-03-20T06:33:09.747Z,1.30
2023-03-20T06:35:40.065Z,1.45
2023-03-20T06:38:09.989Z,1.50
2023-03-20T06:40:39.713Z,1.23
2023-03-20T06:43:12.544Z,1.73
2023-03-20T06:45:43.004Z,1.40
2023-03-20T06:48:12.884Z,1.17
2023-03-20T06:50:42.653Z,1.27
2023-03-20T06:53:12.385Z,1.40
2023-03-20T06:55:42.382Z,1.45
2023-03-20T06:58:14.778Z,1.20
2023-03-20T07:00:45.032Z,1.60
2023-03-20T07:03:15.764Z,1.27
2023-03-20T07:05:45.877Z,1.35
2023-03-20T07:08:15.673Z,1.35
2023-03-20T07:10:45.493Z,1.40
2023-03-20T07:13:18.579Z,1.20
2023-03-20T07:16:03.445Z,2.00
2023-03-20T07:18:34.247Z,1.92
2023-03-20T07:21:06.384Z,1.58
2023-03-20T07:23:37.204Z,1.33
2023-03-20T07:26:08.104Z,1.10
2023-03-20T07:28:40.619Z,1.05
2023-03-20T07:31:10.423Z,1.20
2023-03-20T07:33:40.399Z,1.58
2023-03-20T07:36:11.046Z,1.25
2023-03-20T07:38:40.811Z,1.30
2023-03-20T07:41:11.285Z,0.98
2023-03-20T07:43:44.767Z,1.50
2023-03-20T07:46:14.930Z,1.45
2023-03-20T07:48:44.813Z,1.25
2023-03-20T07:51:14.858Z,1.10
2023-03-20T07:53:44.683Z,1.55
2023-03-20T07:56:14.413Z,1.40
2023-03-20T07:58:46.699Z,1.30
2023-03-20T08:01:16.683Z,1.70
2023-03-20T08:03:46.577Z,1.33
2023-03-20T08:06:16.393Z,1.25
2023-03-20T08:08:46.222Z,1.45
2023-03-20T08:11:16.302Z,1.33
2023-03-20T08:13:48.878Z,1.42
2023-03-20T08:16:18.794Z,1.35
2023-03-20T08:18:50.487Z,1.52
2023-03-20T08:21:20.216Z,1.17
2023-03-20T08:23:50.015Z,1.35
2023-03-20T08:26:19.781Z,1.05
2023-03-20T08:28:52.648Z,1.15
2023-03-20T08:31:23.107Z,1.08
2023-03-20T08:33:52.975Z,1.20
2023-03-20T08:36:23.063Z,0.90
2023-03-20T08:38:53.201Z,1.08
2023-03-20T08:41:23.022Z,1.52
2023-03-20T08:43:55.327Z,1.27
2023-03-20T08:46:25.404Z,1.50
2023-03-20T08:48:55.357Z,1.25
2023-03-20T08:51:25.132Z,1.38
2023-03-20T08:53:54.990Z,1.77
2023-03-20T08:56:25.174Z,1.70
2023-03-20T08:58:57.540Z,1.58
2023-03-20T09:01:41.807Z,1.75
2023-03-20T09:04:19.073Z,1.80
2023-03-20T09:06:49.130Z,2.00
2023-03-20T09:09:20.262Z,2.30
2023-03-20T09:11:50.544Z,1.67
2023-03-20T09:14:22.837Z,1.98
2023-03-20T09:16:52.683Z,2.15
2023-03-20T09:19:22.742Z,1.80
2023-03-20T09:21:52.570Z,1.98
2023-03-20T09:24:22.355Z,1.90
2023-03-20T09:26:52.473Z,2.00
2023-03-20T09:29:24.844Z,1.85
2023-03-20T09:31:56.022Z,2.13
2023-03-20T09:34:26.007Z,2.00
2023-03-20T09:36:56.081Z,2.47
2023-03-20T09:39:26.107Z,2.38
2023-03-20T09:41:57.683Z,2.40
2023-03-20T09:44:45.688Z,2.30
2023-03-20T09:47:25.628Z,2.40
2023-03-20T09:50:30.171Z,2.00
2023-03-20T09:53:07.135Z,2.90
2023-03-20T09:55:39.619Z,2.80
2023-03-20T09:58:15.832Z,2.38
2023-03-20T10:00:49.833Z,2.45
2023-03-20T10:03:23.886Z,2.42
2023-03-20T10:06:00.200Z,2.20
2023-03-20T10:08:32.883Z,2.72
2023-03-20T10:11:11.808Z,2.90
2023-03-20T10:14:13.930Z,2.05
2023-03-20T10:17:05.356Z,2.55
2023-03-20T10:19:39.204Z,2.63
2023-03-20T10:22:18.539Z,2.80
2023-03-20T10:24:55.198Z,3.05
2023-03-20T10:27:28.424Z,3.17
2023-03-20T10:30:15.036Z,4.30
2023-03-20T10:32:56.941Z,3.90
2023-03-20T10:35:31.465Z,4.25
2023-03-20T10:38:14.699Z,3.83
2023-03-20T10:40:46.127Z,4.32
2023-03-20T10:43:21.765Z,3.75
2023-03-20T10:45:54.983Z,3.70
2023-03-20T10:48:32.089Z,4.00
2023-03-20T10:51:03.906Z,3.90
2023-03-20T10:53:37.723Z,4.60
2023-03-20T10:56:11.602Z,4.07
2023-03-20T10:58:43.394Z,5.78
2023-03-20T11:01:13.589Z,4.40
2023-03-20T11:03:45.994Z,4.65
2023-03-20T11:06:22.260Z,4.13
2023-03-20T11:08:55.091Z,4.03
2023-03-20T11:11:28.067Z,4.35
2023-03-20T11:13:58.784Z,4.50
2023-03-20T11:16:33.583Z,4.72
2023-03-20T11:19:14.500Z,4.57
2023-03-20T11:21:50.008Z,4.97
2023-03-20T11:24:28.618Z,5.30
2023-03-20T11:27:08.703Z,5.53
2023-03-20T11:29:40.847Z,6.05
2023-03-20T11:32:19.247Z,5.22
2023-03-20T11:34:52.295Z,4.45
2023-03-20T11:37:26.627Z,5.07
2023-03-20T11:42:31.557Z,5.20
2023-03-20T11:45:06.436Z,5.25
2023-03-20T11:47:38.110Z,4.63
2023-03-20T11:50:28.833Z,4.75
2023-03-20T11:52:58.879Z,4.57
2023-03-20T11:55:32.436Z,3.90
2023-03-20T11:58:03.815Z,4.03
2023-03-20T12:00:41.127Z,3.75
2023-03-20T12:03:55.509Z,3.70
2023-03-20T12:06:30.260Z,4.10
2023-03-20T12:09:04.172Z,4.43
2023-03-20T12:11:48.315Z,4.28
2023-03-20T12:14:25.510Z,4.63
2023-03-20T12:17:02.164Z,4.03
2023-03-20T12:19:35.117Z,4.32
2023-03-20T12:22:20.716Z,4.53
2023-03-20T12:25:00.794Z,4.28
2023-03-20T12:27:35.252Z,3.70
2023-03-20T12:30:12.947Z,3.65
2023-03-20T12:32:47.620Z,4.55
2023-03-20T12:35:22.245Z,4.72
2023-03-20T12:37:55.011Z,3.90
2023-03-20T12:40:35.185Z,4.40
2023-03-20T12:43:14.366Z,4.38
2023-03-20T12:45:50.378Z,3.85
2023-03-20T12:48:51.521Z,4.30
2023-03-20T12:51:28.527Z,3.22
2023-03-20T12:54:10.884Z,3.35
2023-03-20T12:57:03.903Z,3.30
2023-03-20T12:59:45.436Z,3.33
2023-03-20T13:02:27.069Z,3.60
2023-03-20T13:05:05.471Z,3.45
2023-03-20T13:07:52.959Z,3.38
2023-03-20T13:10:27.302Z,3.33
2023-03-20T13:15:47.944Z,3.20
2023-03-20T13:18:23.086Z,3.13
2023-03-20T13:20:54.951Z,2.80
2023-03-20T13:23:28.779Z,3.63
2023-03-20T13:26:19.545Z,2.92
2023-03-20T13:28:58.119Z,2.85
2023-03-20T13:31:38.784Z,2.95
2023-03-20T13:34:20.845Z,3.00
2023-03-20T13:37:12.349Z,2.90
2023-03-20T13:39:54.988Z,2.95
2023-03-20T13:42:33.360Z,3.00
2023-03-20T13:45:16.875Z,3.20
2023-03-20T13:47:48.940Z,2.80
2023-03-20T13:50:34.980Z,3.00
2023-03-20T13:53:09.375Z,3.20
2023-03-20T13:55:47.655Z,2.60
2023-03-20T13:58:48.368Z,2.80
2023-03-20T14:01:25.214Z,2.42
2023-03-20T14:03:56.295Z,2.65
2023-03-20T14:06:50.194Z,1.75
2023-03-20T14:09:36.400Z,1.90
2023-03-20T14:12:09.677Z,1.70
2023-03-20T14:14:51.696Z,1.58
2023-03-20T14:17:23.733Z,1.73
2023-03-20T14:19:55.470Z,1.75
2023-03-20T14:22:30.359Z,1.83
2023-03-20T14:25:02.451Z,1.60
2023-03-20T14:27:44.054Z,1.70
2023-03-20T14:30:45.932Z,1.60
2023-03-20T14:33:33.379Z,1.60
2023-03-20T14:36:22.821Z,1.70
2023-03-20T14:39:02.487Z,1.90
2023-03-20T14:41:40.945Z,2.40
2023-03-20T14:44:29.635Z,2.50
2023-03-20T14:47:05.999Z,2.85
2023-03-20T14:49:52.821Z,2.63
2023-03-20T14:52:33.265Z,2.70
2023-03-20T14:55:18.778Z,3.17
2023-03-20T14:57:56.458Z,3.47
2023-03-20T15:00:30.021Z,2.90
2023-03-20T15:03:09.752Z,2.97
2023-03-20T15:05:42.302Z,5.13
2023-03-20T15:08:15.934Z,5.25
2023-03-20T15:10:50.265Z,3.35
2023-03-20T15:13:21.474Z,3.80
2023-03-20T15:15:58.876Z,3.55
2023-03-20T15:18:31.348Z,2.80
2023-03-20T15:21:01.294Z,3.17
2023-03-20T15:23:31.108Z,2.90
2023-03-20T15:26:03.679Z,2.80
2023-03-20T15:28:37.309Z,2.60
2023-03-20T15:31:09.562Z,3.08
2023-03-20T15:33:45.744Z,3.28
2023-03-20T15:36:20.848Z,3.20
2023-03-20T15:38:52.275Z,3.20
2023-03-20T15:41:31.124Z,3.20
2023-03-20T15:44:06.813Z,3.05
2023-03-20T15:46:36.700Z,2.53
2023-03-20T15:49:10.476Z,2.80
2023-03-20T15:51:40.457Z,3.28
2023-03-20T15:54:10.459Z,2.90
2023-03-20T15:56:43.930Z,3.00
2023-03-20T15:59:17.346Z,2.70
2023-03-20T16:01:49.187Z,2.95
2023-03-20T16:04:22.235Z,3.10
2023-03-20T16:06:56.370Z,2.92
2023-03-20T16:09:26.753Z,2.92
2023-03-20T16:12:01.011Z,2.70
2023-03-20T16:14:34.741Z,2.95
2023-03-20T16:17:06.737Z,2.55
2023-03-20T16:19:39.257Z,2.58
2023-03-20T16:22:20.249Z,3.50
2023-03-20T16:24:52.852Z,2.78
2023-03-20T16:27:29.276Z,3.10
2023-03-20T16:29:59.829Z,3.35
2023-03-20T16:32:38.245Z,2.92
2023-03-20T16:35:19.425Z,3.03
2023-03-20T16:37:52.535Z,2.83
2023-03-20T16:40:27.061Z,2.90
2023-03-20T16:42:57.987Z,2.72
2023-03-20T16:45:31.530Z,2.92
2023-03-20T16:48:29.822Z,3.03
2023-03-20T16:51:05.292Z,2.80
2023-03-20T16:53:43.126Z,3.83
2023-03-20T16:56:16.005Z,2.88
2023-03-20T16:58:48.501Z,2.58
2023-03-20T17:01:21.867Z,2.72
2023-03-20T17:03:55.703Z,2.78
2023-03-20T17:06:41.108Z,2.55
2023-03-20T17:09:26.021Z,2.60
2023-03-20T17:12:04.183Z,2.67
2023-03-20T17:14:34.539Z,3.05
2023-03-20T17:17:04.358Z,2.70
2023-03-20T17:19:35.662Z,3.03
2023-03-20T17:22:13.326Z,2.67
2023-03-20T17:24:43.166Z,2.58
2023-03-20T17:27:14.793Z,2.70
2023-03-20T17:29:45.037Z,3.30
2023-03-20T17:32:16.804Z,2.58
2023-03-20T17:34:46.771Z,2.50
2023-03-20T17:37:27.084Z,2.80
2023-03-20T17:39:58.321Z,3.28
2023-03-20T17:42:31.460Z,3.28
2023-03-20T17:45:03.458Z,3.20
2023-03-20T17:47:33.996Z,2.67
2023-03-20T17:50:04.132Z,2.47
2023-03-20T17:52:36.556Z,2.75
2023-03-20T17:55:06.671Z,3.35
2023-03-20T17:57:40.061Z,3.15
2023-03-20T18:00:16.455Z,3.17
2023-03-20T18:02:46.406Z,3.05
2023-03-20T18:05:16.404Z,3.10
2023-03-20T18:07:48.900Z,2.80
2023-03-20T18:10:31.963Z,3.03
2023-03-20T18:13:02.173Z,2.78
2023-03-20T18:15:32.266Z,2.75
2023-03-20T18:18:02.115Z,3.25
2023-03-20T18:20:34.430Z,3.70
2023-03-20T18:23:07.306Z,2.78
2023-03-20T18:25:37.856Z,3.08
2023-03-20T18:28:10.178Z,3.08
2023-03-20T18:30:42.128Z,3.35
2023-03-20T18:33:12.063Z,3.45
2023-03-20T18:35:41.878Z,3.53
2023-03-20T18:38:15.473Z,3.08
2023-03-20T18:40:47.261Z,3.53
2023-03-20T18:43:17.083Z,3.38
2023-03-20T18:45:46.945Z,4.05
2023-03-20T18:48:17.602Z,3.70
2023-03-20T18:50:50.967Z,3.78
2023-03-20T18:53:23.633Z,3.50
2023-03-20T18:55:53.440Z,4.22
2023-03-20T18:58:25.663Z,3.60
2023-03-20T19:00:56.586Z,3.90
2023-03-20T19:03:28.650Z,3.83
2023-03-20T19:06:01.303Z,3.88
2023-03-20T19:08:35.248Z,3.90
2023-03-20T19:11:05.067Z,3.85
2023-03-20T19:13:35.017Z,3.63
2023-03-20T19:16:04.853Z,3.65
2023-03-20T19:18:34.688Z,3.55
2023-03-20T19:21:04.791Z,3.58
2023-03-20T19:23:37.142Z,3.72
2023-03-20T19:26:09.001Z,3.80
2023-03-20T19:28:41.161Z,3.42
2023-03-20T19:31:12.376Z,3.50
2023-03-20T19:33:42.821Z,3.50
2023-03-20T19:36:25.747Z,3.67
2023-03-20T19:38:58.920Z,3.90
2023-03-20T19:41:32.272Z,3.95
2023-03-20T19:44:02.321Z,4.07
2023-03-20T19:46:41.407Z,3.78
2023-03-20T19:49:20.740Z,3.92
2023-03-20T19:51:51.795Z,3.58
2023-03-20T19:54:24.160Z,3.38
2023-03-20T19:56:53.883Z,3.70
2023-03-20T19:59:25.917Z,3.65
2023-03-20T20:01:56.121Z,4.45
2023-03-20T20:04:25.960Z,3.80
2023-03-20T20:07:23.671Z,3.33
2023-03-20T20:09:48.105Z,4.53
2023-03-20T20:12:18.046Z,4.25
2023-03-20T20:14:47.840Z,3.83
2023-03-20T20:17:17.551Z,3.60
2023-03-20T20:19:47.300Z,3.53
2023-03-20T20:22:25.359Z,3.58
2023-03-20T20:24:58.367Z,3.65
2023-03-20T20:27:29.107Z,3.53
2023-03-20T20:29:58.970Z,4.82
2023-03-20T20:32:30.904Z,6.63
2023-03-20T20:38:33.567Z,3.75
2023-03-20T20:40:45.695Z,4.30
2023-03-20T20:43:38.797Z,4.22
2023-03-20T20:46:05.355Z,4.40
2023-03-20T20:48:37.602Z,4.70
2023-03-20T20:51:07.976Z,5.20
2023-03-20T20:53:37.885Z,4.60
2023-03-20T20:56:10.852Z,4.22
2023-03-20T20:58:40.709Z,4.40
2023-03-20T21:01:10.718Z,4.88
2023-03-20T21:03:40.934Z,4.70
2023-03-20T21:06:10.883Z,5.00
2023-03-20T21:08:40.835Z,4.60
2023-03-20T21:11:15.271Z,4.60
2023-03-20T21:16:17.837Z,5.10
2023-03-20T21:18:47.747Z,5.30
2023-03-20T21:21:18.284Z,4.95
2023-03-20T21:23:48.439Z,5.63
2023-03-20T21:26:21.256Z,4.82
2023-03-20T21:28:51.369Z,5.25
2023-03-20T21:31:29.381Z,5.00
2023-03-20T21:34:00.977Z,5.95
2023-03-20T21:36:31.658Z,7.80
2023-03-20T21:39:08.413Z,5.15
2023-03-20T21:41:43.143Z,8.18
2023-03-20T21:44:17.785Z,9.05
2023-03-20T21:47:38.008Z,9.48
2023-03-20T21:53:12.067Z,7.03
2023-03-20T21:56:23.205Z,6.88
2023-03-20T22:27:28.538Z,5.28
2023-03-20T22:30:07.129Z,5.63
2023-03-20T22:38:59.510Z,5.88
2023-03-20T22:46:49.752Z,5.22
2023-03-20T22:49:23.067Z,5.75
2023-03-20T22:52:14.767Z,6.13
2023-03-20T22:54:44.413Z,5.68
2023-03-20T22:57:14.313Z,5.20
2023-03-20T22:59:44.027Z,5.38
2023-03-20T23:02:13.776Z,5.22
2023-03-20T23:04:46.264Z,5.03
2023-03-20T23:07:16.077Z,4.70
2023-03-20T23:09:45.848Z,4.95
2023-03-20T23:12:15.614Z,5.13
2023-03-20T23:14:46.381Z,5.28
2023-03-20T23:17:16.545Z,5.60
2023-03-20T23:19:54.074Z,5.75
2023-03-20T23:22:29.032Z,4.45
2023-03-20T23:25:02.876Z,4.70
2023-03-20T23:27:39.626Z,4.63
2023-03-20T23:30:11.286Z,5.25
2023-03-20T23:32:41.995Z,5.25
2023-03-20T23:35:14.815Z,4.43
2023-03-20T23:37:44.553Z,4.78
2023-03-20T23:40:15.664Z,5.03
2023-03-20T23:42:45.404Z,5.03
2023-03-20T23:45:20.382Z,5.60
2023-03-20T23:47:51.013Z,5.75
2023-03-20T23:50:36.651Z,5.30
2023-03-20T23:53:20.633Z,5.50
2023-03-20T23:55:52.191Z,5.57
2023-03-20T23:58:22.890Z,5.40
